createdAt,value
2017-03-21T00:02:03.757Z,63.3
2017-03-21T00:07:03.209Z,63.3
2017-03-21T00:12:03.222Z,63.4
2017-03-21T00:17:03.761Z,63.6
2017-03-21T00:22:03.178Z,63.6
2017-03-21T00:27:03.854Z,63.7
2017-03-21T00:32:03.472Z,63.8
2017-03-21T00:37:03.340Z,63.8
2017-03-21T00:42:03.682Z,63.9
2017-03-21T00:47:03.085Z,64.1
2017-03-21T00:52:03.069Z,63.9
2017-03-21T00:57:03.664Z,63.9
2017-03-21T01:02:03.238Z,63.9
2017-03-21T01:07:03.160Z,64.0
2017-03-21T01:12:03.754Z,63.8
2017-03-21T01:17:03.220Z,63.8
2017-03-21T01:22:03.574Z,63.9
2017-03-21T01:27:03.965Z,63.7
2017-03-21T01:32:03.715Z,63.7
2017-03-21T01:37:02.968Z,63.7
2017-03-21T01:42:03.441Z,63.5
2017-03-21T01:47:04.205Z,63.4
2017-03-21T01:52:03.217Z,63.4
2017-03-21T01:57:03.867Z,63.4
2017-03-21T02:02:03.476Z,63.1
2017-03-21T02:07:03.439Z,63.3
2017-03-21T02:12:02.986Z,63.2
2017-03-21T02:17:03.522Z,63.0
2017-03-21T02:22:03.844Z,63.2
2017-03-21T02:27:03.298Z,63.3
2017-03-21T02:32:03.748Z,63.2
2017-03-21T02:37:03.909Z,63.3
2017-03-21T02:42:03.405Z,63.3
2017-03-21T02:47:04.014Z,63.1
2017-03-21T02:52:03.487Z,63.3
2017-03-21T02:57:03.578Z,63.1
2017-03-21T03:02:03.752Z,63.2
2017-03-21T03:07:03.026Z,63.2
2017-03-21T03:12:03.496Z,63.2
2017-03-21T03:17:03.995Z,63.3
2017-03-21T03:22:03.721Z,63.2
2017-03-21T03:27:03.501Z,62.9
2017-03-21T03:32:03.900Z,63.0
2017-03-21T03:37:03.534Z,62.9
2017-03-21T03:42:03.554Z,62.8
2017-03-21T03:47:03.691Z,62.7
2017-03-21T03:52:03.807Z,62.8
2017-03-21T03:57:03.042Z,62.7
2017-03-21T04:02:03.299Z,63.1
2017-03-21T04:07:03.554Z,63.2
2017-03-21T04:12:04.074Z,62.9
2017-03-21T04:17:03.311Z,62.9
2017-03-21T04:22:03.465Z,62.9
2017-03-21T04:27:03.653Z,62.9
2017-03-21T04:32:03.865Z,63.1
2017-03-21T04:37:03.335Z,63.1
2017-03-21T04:42:03.492Z,62.9
2017-03-21T04:47:03.744Z,62.8
2017-03-21T04:52:03.114Z,62.8
2017-03-21T04:57:03.552Z,62.8
2017-03-21T05:02:10.721Z,62.8
2017-03-21T05:07:03.438Z,62.8
2017-03-21T05:12:03.676Z,62.8
2017-03-21T05:17:04.478Z,62.9
2017-03-21T05:22:03.888Z,62.8
2017-03-21T05:27:03.892Z,62.8
2017-03-21T05:32:26.199Z,62.9
2017-03-21T05:37:03.431Z,62.9
2017-03-21T05:42:03.631Z,62.8
2017-03-21T05:47:24.030Z,62.8
2017-03-21T05:52:03.056Z,62.6
2017-03-21T05:57:03.180Z,62.7
2017-03-21T06:02:23.788Z,62.6
2017-03-21T06:07:03.061Z,62.7
2017-03-21T06:12:03.602Z,62.3
2017-03-21T06:17:23.320Z,62.2
2017-03-21T06:22:03.200Z,62.2
2017-03-21T06:27:03.894Z,62.0
2017-03-21T06:32:20.180Z,62.0
2017-03-21T06:37:03.851Z,62.0
2017-03-21T06:42:03.047Z,61.8
2017-03-21T06:47:23.393Z,61.7
2017-03-21T06:52:03.659Z,61.4
2017-03-21T06:57:03.707Z,61.4
2017-03-21T07:02:24.735Z,61.2
2017-03-21T07:07:03.199Z,61.3
2017-03-21T07:12:03.899Z,61.0
2017-03-21T07:17:24.330Z,61.2
2017-03-21T07:22:03.531Z,61.2
2017-03-21T07:27:03.715Z,61.4
2017-03-21T07:32:26.313Z,61.5
2017-03-21T07:37:03.585Z,61.4
2017-03-21T07:42:03.542Z,61.0
2017-03-21T07:47:24.875Z,61.0
2017-03-21T07:52:03.768Z,61.0
2017-03-21T07:57:03.240Z,60.6
2017-03-21T08:02:25.710Z,60.8
2017-03-21T08:07:03.647Z,60.9
2017-03-21T08:12:03.280Z,60.6
2017-03-21T08:17:24.141Z,60.7
2017-03-21T08:22:03.998Z,60.4
2017-03-21T08:27:03.785Z,60.2
2017-03-21T08:32:23.556Z,59.9
2017-03-21T08:37:03.246Z,59.9
2017-03-21T08:42:03.434Z,59.8
2017-03-21T08:47:25.993Z,59.7
2017-03-21T08:52:03.096Z,59.7
2017-03-21T08:57:03.473Z,59.7
2017-03-21T09:02:24.007Z,59.5
2017-03-21T09:07:03.197Z,59.8
2017-03-21T09:12:03.573Z,59.8
2017-03-21T09:17:24.571Z,59.8
2017-03-21T09:22:03.767Z,59.7
2017-03-21T09:27:03.712Z,59.6
2017-03-21T09:32:27.282Z,59.7
2017-03-21T09:37:03.049Z,59.5
2017-03-21T09:42:03.718Z,59.3
2017-03-21T09:47:24.787Z,59.1
2017-03-21T09:52:03.055Z,59.1
2017-03-21T09:57:03.676Z,58.7
2017-03-21T10:02:23.615Z,58.7
2017-03-21T10:07:03.787Z,58.1
2017-03-21T10:12:03.474Z,58.1
2017-03-21T10:17:25.522Z,58.5
2017-03-21T10:22:03.829Z,58.5
2017-03-21T10:27:03.272Z,58.4
2017-03-21T10:32:23.719Z,58.2
2017-03-21T10:37:03.420Z,58.8
2017-03-21T10:42:03.837Z,58.9
2017-03-21T10:47:24.386Z,59.1
2017-03-21T10:52:02.974Z,59.1
2017-03-21T10:57:03.291Z,58.4
2017-03-21T11:02:24.847Z,57.6
2017-03-21T11:07:03.612Z,57.7
2017-03-21T11:12:03.602Z,57.7
2017-03-21T11:17:24.105Z,57.9
2017-03-21T11:22:03.722Z,58.1
2017-03-21T11:27:03.419Z,58.0
2017-03-21T11:32:23.992Z,57.0
2017-03-21T11:37:03.225Z,57.0
2017-03-21T11:42:03.745Z,57.1
2017-03-21T11:47:21.133Z,57.2
2017-03-21T11:52:03.924Z,56.8
2017-03-21T11:57:02.985Z,56.8
2017-03-21T12:02:25.767Z,57.4
2017-03-21T12:07:03.542Z,57.4
2017-03-21T12:12:03.931Z,57.2
2017-03-21T12:17:27.866Z,57.5
2017-03-21T12:22:03.200Z,57.8
2017-03-21T12:27:03.718Z,58.0
2017-03-21T12:32:24.749Z,58.5
2017-03-21T12:37:03.368Z,58.0
2017-03-21T12:42:03.356Z,57.9
2017-03-21T12:47:23.957Z,58.1
2017-03-21T12:52:03.139Z,58.2
2017-03-21T12:57:03.685Z,58.2
2017-03-21T13:02:24.043Z,58.2
2017-03-21T13:07:03.419Z,58.9
2017-03-21T13:12:03.518Z,58.6
2017-03-21T13:17:28.384Z,59.3
2017-03-21T13:22:03.459Z,59.3
2017-03-21T13:27:03.520Z,59.2
2017-03-21T13:32:04.264Z,59.2
2017-03-21T13:37:03.194Z,59.1
2017-03-21T13:42:03.668Z,59.3
2017-03-21T13:47:28.078Z,59.3
2017-03-21T13:52:03.347Z,59.9
2017-03-21T13:57:03.028Z,59.9
2017-03-21T14:02:28.618Z,60.6
2017-03-21T14:07:03.746Z,60.9
2017-03-21T14:12:03.579Z,60.6
2017-03-21T14:17:24.226Z,60.6
2017-03-21T14:22:03.105Z,60.6
2017-03-21T14:27:03.958Z,60.6
2017-03-21T14:32:23.941Z,60.8
2017-03-21T14:37:03.037Z,60.9
2017-03-21T14:42:03.835Z,60.9
2017-03-21T14:47:31.481Z,61.0
2017-03-21T14:52:03.756Z,61.0
2017-03-21T14:57:03.275Z,61.5
2017-03-21T15:02:23.818Z,61.2
2017-03-21T15:07:03.394Z,61.7
2017-03-21T15:12:04.213Z,61.6
2017-03-21T15:17:23.649Z,61.6
2017-03-21T15:22:03.052Z,61.7
2017-03-21T15:27:03.464Z,61.7
2017-03-21T15:32:29.313Z,61.5
2017-03-21T15:37:03.640Z,61.5
2017-03-21T15:42:03.039Z,62.9
2017-03-21T15:47:24.242Z,62.9
2017-03-21T15:52:03.836Z,61.8
2017-03-21T15:57:03.195Z,61.8
2017-03-21T16:02:24.181Z,61.2
2017-03-21T16:07:04.105Z,61.2
2017-03-21T16:12:03.771Z,61.3
2017-03-21T16:17:24.558Z,61.4
2017-03-21T16:22:03.430Z,61.3
2017-03-21T16:27:03.774Z,61.3
2017-03-21T16:32:23.665Z,61.6
2017-03-21T16:37:03.746Z,61.4
2017-03-21T16:42:03.486Z,61.4
2017-03-21T16:47:28.301Z,61.5
2017-03-21T16:52:02.963Z,61.4
2017-03-21T16:57:03.433Z,61.4
2017-03-21T17:02:24.154Z,62.8
2017-03-21T17:07:03.123Z,63.1
2017-03-21T17:12:03.892Z,63.3
2017-03-21T17:17:24.787Z,63.3
2017-03-21T17:22:03.671Z,63.0
2017-03-21T17:27:03.845Z,62.9
2017-03-21T17:32:14.765Z,62.5
2017-03-21T17:37:03.203Z,62.2
2017-03-21T17:42:03.004Z,61.8
2017-03-21T17:47:23.871Z,61.8
2017-03-21T17:52:03.461Z,61.7
2017-03-21T17:57:03.567Z,61.3
2017-03-21T18:02:13.976Z,61.3
2017-03-21T18:07:03.516Z,61.3
2017-03-21T18:12:03.560Z,61.2
2017-03-21T18:17:03.833Z,61.2
2017-03-21T18:22:03.420Z,61.2
2017-03-21T18:27:03.555Z,61.2
2017-03-21T18:32:03.611Z,61.1
2017-03-21T18:37:03.667Z,61.3
2017-03-21T18:42:03.306Z,61.6
2017-03-21T18:47:03.183Z,61.4
2017-03-21T18:52:03.104Z,61.2
2017-03-21T18:57:03.815Z,60.8
2017-03-21T19:02:03.213Z,60.8
2017-03-21T19:07:03.921Z,60.5
2017-03-21T19:12:03.949Z,60.5
2017-03-21T19:17:04.120Z,60.7
2017-03-21T19:22:03.487Z,60.6
2017-03-21T19:27:03.305Z,60.9
2017-03-21T19:32:03.257Z,60.6
2017-03-21T19:37:03.332Z,60.6
2017-03-21T19:42:03.301Z,60.6
2017-03-21T19:47:03.514Z,60.5
2017-03-21T19:52:03.281Z,60.5
2017-03-21T19:57:03.380Z,60.6
2017-03-21T20:02:03.314Z,60.8
2017-03-21T20:07:03.333Z,60.6
2017-03-21T20:12:03.053Z,60.7
2017-03-21T20:17:03.357Z,61.1
2017-03-21T20:22:03.328Z,61.2
2017-03-21T20:27:03.923Z,61.2
2017-03-21T20:32:03.289Z,61.2
2017-03-21T20:37:03.299Z,61.5
2017-03-21T20:42:03.397Z,61.4
2017-03-21T20:47:04.008Z,61.3
2017-03-21T20:52:04.111Z,61.3
2017-03-21T20:57:03.424Z,61.0
2017-03-21T21:02:04.977Z,60.5
2017-03-21T21:07:03.939Z,60.0
2017-03-21T21:12:03.389Z,60.0
2017-03-21T21:17:04.288Z,59.8
2017-03-21T21:22:03.058Z,59.8
2017-03-21T21:27:03.830Z,59.8
2017-03-21T21:32:03.223Z,59.8
2017-03-21T21:37:03.359Z,59.8
2017-03-21T21:42:03.862Z,59.8
2017-03-21T21:47:03.804Z,59.9
2017-03-21T21:52:03.063Z,59.6
2017-03-21T21:57:03.212Z,59.6
2017-03-21T22:02:03.167Z,59.5
2017-03-21T22:07:03.836Z,59.4
2017-03-21T22:12:03.404Z,59.5
2017-03-21T22:17:03.399Z,59.5
2017-03-21T22:22:03.635Z,59.4
2017-03-21T22:27:03.521Z,59.5
2017-03-21T22:32:03.100Z,59.2
2017-03-21T22:37:03.275Z,59.2
2017-03-21T22:42:03.166Z,59.3
2017-03-21T22:47:03.119Z,59.4
2017-03-21T22:52:03.316Z,59.2
2017-03-21T22:57:03.919Z,59.1
2017-03-21T23:02:03.197Z,59.2
2017-03-21T23:07:03.718Z,59.2
2017-03-21T23:12:04.000Z,59.2
2017-03-21T23:22:04.114Z,59.6
2017-03-21T23:27:03.747Z,59.3
2017-03-21T23:32:03.580Z,59.3
2017-03-21T23:37:03.557Z,59.3
2017-03-21T23:42:03.409Z,59.8
2017-03-21T23:47:03.151Z,59.7
2017-03-21T23:52:03.541Z,59.5
2017-03-21T23:57:03.310Z,59.6
